This is the latest recevied weather packets stored in our database for station/object HB9EYW-6. If no packets are shown the sender has not sent any weather packets the latest 10 day(s).
| Time | Temp. | Humidity | Pressure | Rain* | Wind** | Luminosity | Snow |
|---|---|---|---|---|---|---|---|
| 1778229605 | 17.78° C | 51% | 0 hPa | 0 mm | - | - | - |
| 1778229305 | 17.78° C | 54% | 0 hPa | 0 mm | - | - | - |
| 1778229005 | 16.67° C | 57% | 0 hPa | 0 mm | - | - | - |
| 1778228705 | 16.11° C | 59% | 0 hPa | 0 mm | - | - | - |
| 1778228405 | 15.56° C | 63% | 0 hPa | 0 mm | - | - | - |
| 1778228105 | 15° C | 66% | 0 hPa | 0 mm | - | - | - |
| 1778227805 | 14.44° C | 66% | 0 hPa | 0 mm | - | - | - |
| 1778227505 | 13.89° C | 67% | 0 hPa | 0 mm | - | - | - |
| 1778227205 | 13.89° C | 67% | 0 hPa | 0 mm | - | - | - |
| 1778226905 | 13.89° C | 68% | 0 hPa | 0 mm | - | - | - |
| 1778226605 | 13.33° C | 68% | 0 hPa | 0 mm | - | - | - |
| 1778226305 | 13.89° C | 68% | 0 hPa | 0 mm | - | - | - |
| 1778226005 | 13.89° C | 69% | 0 hPa | 0 mm | - | - | - |
| 1778225705 | 13.89° C | 69% | 0 hPa | 0 mm | - | - | - |
| 1778225405 | 13.89° C | 70% | 0 hPa | 0 mm | - | - | - |
| 1778225105 | 13.33° C | 72% | 0 hPa | 0 mm | - | - | - |
| 1778224805 | 13.33° C | 72% | 0 hPa | 0 mm | - | - | - |
| 1778224505 | 13.89° C | 71% | 0 hPa | 0 mm | - | - | - |
| 1778224205 | 14.44° C | 74% | 0 hPa | 0 mm | - | - | - |
| 1778223905 | 13.33° C | 78% | 0 hPa | 0 mm | - | - | - |
| 1778223605 | 13.33° C | 78% | 0 hPa | 0 mm | - | - | - |
| 1778223305 | 12.78° C | 79% | 0 hPa | 0 mm | - | - | - |
| 1778223005 | 12.22° C | 81% | 0 hPa | 0 mm | - | - | - |
| 1778222705 | 11.67° C | 82% | 0 hPa | 0 mm | - | - | - |
| 1778222405 | 11.67° C | 83% | 0 hPa | 0 mm | - | - | - |
* Rain latest hour (hover to see other rain measurements)
** Current wind speed in m/s (hover to see current wind gust speed)